Time;durP1;ratioP1;P1;durP2;ratioP2;P2;SDS_P1;SDS_P2;PMS_P1;PMS_P2;Temp;Humidity;BMP_temperature;BMP_pressure;BME280_temperature;BME280_humidity;BME280_pressure;Samples;Min_cycle;Max_cycle;Signal;HPM_P1;HPM_P2
2022/05/02 00:01:36;;;;;;;;;15.25;13.25;;;;;20.21;33.10;101456.81;5038251;28;46252;-57
2022/05/02 00:04:02;;;;;;;;;16.25;13.50;;;;;20.20;32.99;101445.41;5038279;28;45425;-57
2022/05/02 00:06:27;;;;;;;;;16.25;12.25;;;;;20.20;32.95;101441.94;5038623;28;45404;-48
2022/05/02 00:08:52;;;;;;;;;17.50;14.00;;;;;20.20;32.80;101441.94;5038459;28;45510;-54
2022/05/02 00:11:18;;;;;;;;;14.00;12.25;;;;;20.18;33.14;101435.88;5037938;28;46266;-57
2022/05/02 00:13:43;;;;;;;;;15.75;13.50;;;;;20.19;33.14;101427.91;5037269;28;45471;-56
2022/05/02 00:16:08;;;;;;;;;14.50;11.50;;;;;20.20;33.31;101428.78;5036679;28;45347;-53
2022/05/02 00:18:34;;;;;;;;;13.75;10.25;;;;;20.19;32.67;101420.03;5038286;28;45640;-51
2022/05/02 00:21:00;;;;;;;;;15.00;10.75;;;;;20.16;32.55;101422.81;5038230;28;45587;-55
2022/05/02 00:23:26;;;;;;;;;15.25;12.75;;;;;20.18;32.86;101420.09;5036676;28;45335;-51
2022/05/02 00:25:51;;;;;;;;;9.50;9.50;;;;;20.18;32.85;101422.72;5038181;28;45387;-56
2022/05/02 00:28:16;;;;;;;;;8.50;7.75;;;;;20.16;32.93;101412.28;5038186;28;45418;-55
2022/05/02 00:30:42;;;;;;;;;15.25;13.00;;;;;20.19;32.61;101421.81;5037758;28;45386;-56
2022/05/02 00:33:08;;;;;;;;;13.50;12.00;;;;;20.18;32.76;101418.31;5037918;28;45342;-56
2022/05/02 00:35:34;;;;;;;;;12.00;12.00;;;;;20.17;33.26;101418.38;5037907;28;45327;-57
2022/05/02 00:37:59;;;;;;;;;13.00;13.00;;;;;20.16;32.99;101411.41;5038330;28;45253;-56
2022/05/02 00:40:25;;;;;;;;;12.50;12.50;;;;;20.18;32.82;101420.09;5037688;28;46192;-46
2022/05/02 00:42:51;;;;;;;;;17.50;14.75;;;;;20.17;33.29;101413.13;5037628;28;45437;-55
2022/05/02 00:45:18;;;;;;;;;11.00;10.25;;;;;20.17;33.33;101407.84;5037924;28;45308;-57
2022/05/02 00:47:55;;;;;;;;;14.50;13.75;;;;;20.18;32.94;101412.19;5036706;28;45558;-55
2022/05/02 00:50:39;;;;;;;;;13.25;12.50;;;;;20.17;33.15;101407.84;5037515;28;47161;-57
2022/05/02 00:53:07;;;;;;;;;17.50;12.75;;;;;20.16;32.87;101401.75;5037465;28;45386;-55
2022/05/02 00:55:33;;;;;;;;;13.25;11.75;;;;;20.16;33.50;101396.50;5053216;28;45320;-52
2022/05/02 00:58:00;;;;;;;;;14.00;12.00;;;;;20.17;33.25;101392.06;5037961;28;45421;-57
2022/05/02 01:00:30;;;;;;;;;12.75;11.75;;;;;20.16;33.26;101393.84;5037242;28;46027;-56
2022/05/02 01:02:56;;;;;;;;;15.00;12.50;;;;;20.16;33.15;101393.00;5037439;28;45981;-54
2022/05/02 01:05:21;;;;;;;;;17.25;13.25;;;;;20.16;33.36;101380.69;5037493;28;45314;-56
2022/05/02 01:07:47;;;;;;;;;17.00;13.00;;;;;20.16;32.99;101382.47;5037745;28;45365;-55
2022/05/02 01:10:17;;;;;;;;;12.00;10.50;;;;;20.15;33.22;101380.75;5037118;28;46120;-55
2022/05/02 01:12:43;;;;;;;;;14.75;12.75;;;;;20.16;33.16;101371.94;5036729;28;45790;-45
2022/05/02 01:15:09;;;;;;;;;14.50;8.75;;;;;20.15;33.02;101368.47;5037355;28;45342;-45
2022/05/02 01:17:34;;;;;;;;;14.75;11.50;;;;;20.15;33.08;101373.72;5037403;28;45328;-47
2022/05/02 01:19:59;;;;;;;;;11.25;10.75;;;;;20.14;33.34;101364.13;5037338;28;45478;-47
2022/05/02 01:22:25;;;;;;;;;11.25;11.25;;;;;20.14;33.34;101366.75;5037105;28;45430;-46
2022/05/02 01:24:50;;;;;;;;;12.75;10.75;;;;;20.15;33.08;101367.59;5035864;28;45334;-44
2022/05/02 01:27:16;;;;;;;;;12.25;10.75;;;;;20.14;33.11;101371.16;5037230;28;45524;-55
2022/05/02 01:29:42;;;;;;;;;12.25;9.75;;;;;20.14;33.26;101358.84;5036948;28;46714;-55
2022/05/02 01:32:10;;;;;;;;;11.50;10.75;;;;;20.14;33.42;101369.38;5036978;28;46039;-57
2022/05/02 01:34:40;;;;;;;;;10.50;9.75;;;;;20.13;33.62;101369.44;5037115;28;45438;-55
2022/05/02 01:37:06;;;;;;;;;12.00;11.25;;;;;20.13;33.47;101370.31;5037266;28;45501;-49
2022/05/02 01:39:31;;;;;;;;;10.50;9.00;;;;;20.13;33.30;101359.78;5037199;28;45691;-53
2022/05/02 01:42:01;;;;;;;;;9.75;9.50;;;;;20.14;33.50;101368.50;5036826;28;45517;-56
2022/05/02 01:44:27;;;;;;;;;11.75;11.25;;;;;20.12;33.51;101373.03;5037017;28;45340;-52
2022/05/02 01:46:53;;;;;;;;;13.75;11.25;;;;;20.11;33.21;101366.03;5037030;28;45594;-54
2022/05/02 01:49:19;;;;;;;;;12.00;9.75;;;;;20.13;33.67;101374.69;5036554;28;46628;-52
2022/05/02 01:51:44;;;;;;;;;9.00;9.00;;;;;20.12;33.68;101365.97;5036622;28;45265;-56
2022/05/02 01:54:09;;;;;;;;;13.25;10.50;;;;;20.13;33.18;101369.44;5036913;28;45241;-53
2022/05/02 01:56:35;;;;;;;;;13.25;11.00;;;;;20.12;33.51;101373.84;5037220;28;45335;-46
2022/05/02 01:59:01;;;;;;;;;11.50;10.00;;;;;20.11;32.80;101371.31;5036746;28;45394;-51
2022/05/02 02:01:26;;;;;;;;;14.25;13.00;;;;;20.11;33.52;101371.31;5036575;28;45433;-53
2022/05/02 02:03:52;;;;;;;;;4.25;4.25;;;;;20.11;33.13;101371.31;5036756;28;45352;-52
2022/05/02 02:06:17;;;;;;;;;11.75;8.75;;;;;20.11;33.74;101373.94;5036792;28;45395;-51
2022/05/02 02:08:42;;;;;;;;;13.50;12.25;;;;;20.11;33.48;101371.31;5035163;28;46994;-45
2022/05/02 02:11:09;;;;;;;;;9.00;8.00;;;;;20.11;32.99;101372.16;5036464;28;45365;-49
2022/05/02 02:13:36;;;;;;;;;10.00;8.00;;;;;20.11;33.75;101371.31;5036781;28;45544;-50
2022/05/02 02:16:02;;;;;;;;;10.25;10.25;;;;;20.11;33.61;101361.63;5036976;28;45367;-56
2022/05/02 02:18:27;;;;;;;;;9.25;7.50;;;;;20.09;33.25;101368.72;5036396;28;45307;-53
2022/05/02 02:20:55;;;;;;;;;12.25;11.50;;;;;20.10;33.13;101364.34;5036440;28;45230;-55
2022/05/02 02:23:21;;;;;;;;;10.25;9.25;;;;;20.10;33.46;101369.59;5036579;28;45415;-57
2022/05/02 02:25:47;;;;;;;;;9.00;9.00;;;;;20.11;33.45;101360.78;5036646;28;45562;-55
2022/05/02 02:28:14;;;;;;;;;11.75;8.50;;;;;20.10;33.52;101361.69;5036176;28;46010;-55
2022/05/02 02:30:40;;;;;;;;;10.50;9.00;;;;;20.10;33.70;101359.06;5036342;28;46094;-51
2022/05/02 02:33:06;;;;;;;;;11.50;8.25;;;;;20.10;33.62;101351.19;5036677;28;45169;-53
2022/05/02 02:35:32;;;;;;;;;12.50;10.00;;;;;20.07;33.39;101342.50;5037330;28;45249;-49
2022/05/02 02:37:57;;;;;;;;;10.25;10.00;;;;;20.09;33.65;101347.66;5042740;28;45320;-51
2022/05/02 02:40:23;;;;;;;;;10.75;9.00;;;;;20.06;33.66;101343.41;5042763;28;45351;-52
2022/05/02 02:42:49;;;;;;;;;12.25;8.75;;;;;20.10;33.64;101351.19;5042829;28;45284;-45
2022/05/02 02:45:15;;;;;;;;;8.50;7.25;;;;;20.10;33.48;101348.53;5042906;28;45299;-52
2022/05/02 02:47:41;;;;;;;;;13.25;9.75;;;;;20.09;33.43;101352.94;5042593;28;46302;-49
2022/05/02 02:50:07;;;;;;;;;13.50;9.00;;;;;20.08;33.36;101341.56;5042897;28;45393;-55
2022/05/02 02:52:32;;;;;;;;;14.25;9.50;;;;;20.06;33.44;101340.78;5042738;28;45466;-56
2022/05/02 02:54:57;;;;;;;;;14.50;9.00;;;;;20.07;33.82;101339.84;5042851;28;45331;-46
2022/05/02 02:57:23;;;;;;;;;13.25;9.50;;;;;20.08;33.79;101346.84;5042392;28;46248;-43
2022/05/02 02:59:48;;;;;;;;;14.25;12.75;;;;;20.07;33.63;101342.50;5042440;28;45319;-45
2022/05/02 03:02:14;;;;;;;;;15.25;10.75;;;;;20.08;33.73;101338.94;5042651;28;45430;-48
2022/05/02 03:07:26;;;;;;;;;15.00;12.00;;;;;20.08;33.66;101338.06;5042384;28;45374;-47
2022/05/02 03:09:52;;;;;;;;;14.50;10.00;;;;;20.06;33.97;101339.94;5057867;28;45814;-47
2022/05/02 03:12:19;;;;;;;;;14.75;12.00;;;;;20.08;33.89;101336.31;5042539;28;45326;-52
2022/05/02 03:14:44;;;;;;;;;12.25;11.00;;;;;20.07;33.96;101334.59;5042384;28;45554;-51
2022/05/02 03:17:10;;;;;;;;;10.75;9.50;;;;;20.06;33.51;101325.00;5042267;28;46185;-46
2022/05/02 03:19:35;;;;;;;;;12.00;10.75;;;;;20.07;33.77;101329.34;5042416;28;45434;-51
2022/05/02 03:22:00;;;;;;;;;11.50;10.00;;;;;20.07;33.98;101324.06;5042306;28;45269;-44
2022/05/02 03:24:26;;;;;;;;;19.25;12.00;;;;;20.06;33.73;101322.34;5042422;28;45434;-52
2022/05/02 03:26:51;;;;;;;;;11.25;9.75;;;;;20.07;33.63;101328.47;5042077;28;45276;-51
2022/05/02 03:29:16;;;;;;;;;8.75;8.50;;;;;20.07;33.87;101317.94;5042089;28;45310;-47
2022/05/02 03:31:42;;;;;;;;;8.75;7.25;;;;;20.06;33.49;101325.00;5042308;28;45452;-50
2022/05/02 03:34:07;;;;;;;;;14.00;11.00;;;;;20.06;33.71;101317.09;5042775;28;45508;-46
2022/05/02 03:36:34;;;;;;;;;10.50;9.75;;;;;20.05;33.72;101318.00;5041869;28;46189;-47
2022/05/02 03:38:59;;;;;;;;;15.50;11.00;;;;;20.05;33.79;101319.81;5040682;28;45328;-46
2022/05/02 03:41:24;;;;;;;;;13.75;10.00;;;;;20.06;33.71;101322.34;5042237;28;45333;-50
2022/05/02 03:43:50;;;;;;;;;11.25;11.25;;;;;20.04;34.09;101312.84;5042340;28;45311;-47
2022/05/02 03:46:15;;;;;;;;;13.00;11.50;;;;;20.06;34.05;101324.16;5041848;28;45697;-44
2022/05/02 03:48:40;;;;;;;;;12.75;12.75;;;;;20.03;33.86;101314.59;5038066;28;45811;-47
2022/05/02 03:51:07;;;;;;;;;14.25;13.25;;;;;20.04;33.48;101313.69;5038991;28;45256;-45
2022/05/02 03:53:32;;;;;;;;;16.25;11.50;;;;;20.06;33.71;101319.72;5038950;28;45505;-45
2022/05/02 03:55:57;;;;;;;;;13.50;11.50;;;;;20.03;33.75;101311.97;5038381;28;46283;-46
2022/05/02 03:58:23;;;;;;;;;15.25;13.75;;;;;20.02;33.61;101314.69;5037948;28;56023;-49
2022/05/02 04:00:48;;;;;;;;;14.75;13.00;;;;;20.04;33.51;101313.69;5038550;28;45711;-52
2022/05/02 04:03:14;;;;;;;;;13.00;11.00;;;;;20.04;33.60;101312.84;5038703;28;45307;-44
2022/05/02 04:05:39;;;;;;;;;18.00;15.25;;;;;20.04;33.84;101316.31;5038602;28;45936;-49
2022/05/02 04:08:05;;;;;;;;;14.00;12.00;;;;;20.04;34.00;101318.09;5038338;28;45596;-47
2022/05/02 04:10:30;;;;;;;;;13.75;13.75;;;;;20.04;33.74;101313.69;5038289;28;45628;-48
2022/05/02 04:12:56;;;;;;;;;11.25;10.00;;;;;20.03;33.60;101311.97;5038331;28;45335;-47
2022/05/02 04:15:21;;;;;;;;;15.25;12.25;;;;;20.03;33.82;101314.59;5038116;28;45396;-54
2022/05/02 04:17:46;;;;;;;;;11.00;8.75;;;;;20.03;34.00;101317.22;5038070;28;45366;-54
2022/05/02 04:20:12;;;;;;;;;13.50;13.25;;;;;20.03;34.13;101322.50;5038794;28;45526;-46
2022/05/02 04:22:37;;;;;;;;;14.75;12.50;;;;;20.04;33.66;101318.09;5038667;28;45479;-53
2022/05/02 04:25:04;;;;;;;;;17.25;14.50;;;;;19.99;33.93;101310.41;5037968;28;46017;-46
2022/05/02 04:27:29;;;;;;;;;16.00;13.00;;;;;20.03;33.46;101319.03;5037949;28;46021;-53
2022/05/02 04:29:54;;;;;;;;;18.50;14.50;;;;;20.02;33.99;101314.69;5036780;28;45326;-53
2022/05/02 04:32:20;;;;;;;;;13.75;12.25;;;;;20.02;33.80;101320.78;5038252;28;45273;-45
2022/05/02 04:34:45;;;;;;;;;15.00;14.25;;;;;20.01;33.62;101316.44;5037910;28;45399;-51
2022/05/02 04:37:10;;;;;;;;;11.50;10.25;;;;;20.02;33.49;101318.16;5038261;28;45304;-48
2022/05/02 04:39:36;;;;;;;;;16.00;13.50;;;;;20.01;33.65;101313.81;5037859;28;45214;-49
2022/05/02 04:42:02;;;;;;;;;15.25;12.50;;;;;20.02;33.79;101310.25;5038018;28;45457;-45
2022/05/02 04:44:27;;;;;;;;;11.75;11.75;;;;;20.02;33.76;101317.31;5037681;28;45280;-57
2022/05/02 04:46:53;;;;;;;;;11.50;11.50;;;;;19.98;33.56;101319.22;5037770;28;45221;-55
2022/05/02 04:49:18;;;;;;;;;15.75;13.00;;;;;20.00;33.48;101311.25;5037846;28;45733;-52
2022/05/02 04:51:43;;;;;;;;;13.50;12.25;;;;;20.01;33.78;101319.06;5038280;28;45665;-54
2022/05/02 04:54:09;;;;;;;;;17.00;13.50;;;;;20.00;33.88;101314.75;5037930;28;45352;-55
2022/05/02 04:56:34;;;;;;;;;12.75;12.00;;;;;19.99;34.17;101320.94;5036286;28;45762;-58
2022/05/02 04:58:59;;;;;;;;;14.25;12.75;;;;;20.01;34.25;101319.06;5037399;28;45358;-48
2022/05/02 05:01:25;;;;;;;;;16.00;12.33;;;;;20.01;34.20;101315.59;5037692;28;45617;-53
2022/05/02 05:03:51;;;;;;;;;13.75;12.00;;;;;20.01;34.07;101319.06;5037307;28;46070;-55
2022/05/02 05:06:17;;;;;;;;;12.50;11.50;;;;;20.01;34.03;101319.06;5037421;28;45387;-54
2022/05/02 05:08:43;;;;;;;;;13.50;13.50;;;;;20.02;34.52;101322.56;5037856;28;45386;-47
2022/05/02 05:11:50;;;;;;;;;14.25;12.00;;;;;20.02;34.56;101323.41;5037539;28;45517;-49
2022/05/02 05:17:33;;;;;;;;;14.00;12.25;;;;;20.01;34.59;101312.97;5037213;28;45856;-53
2022/05/02 05:20:10;;;;;;;;;15.67;13.67;;;;;20.00;34.48;101317.38;5037252;28;45471;-53
2022/05/02 05:22:52;;;;;;;;;15.25;11.50;;;;;20.02;34.43;101319.94;5037507;28;45536;-53
2022/05/02 05:25:46;;;;;;;;;12.25;11.00;;;;;20.01;34.79;101319.06;5037140;28;46070;-52
2022/05/02 05:28:26;;;;;;;;;7.75;5.75;;;;;20.01;34.49;101319.06;5037467;28;45839;-47
2022/05/02 05:31:20;;;;;;;;;11.00;11.00;;;;;20.01;34.50;101321.69;5037271;28;45358;-57
2022/05/02 05:34:06;;;;;;;;;13.75;12.75;;;;;20.01;34.59;101324.31;5030185;28;45907;-51
2022/05/02 05:36:40;;;;;;;;;14.75;14.75;;;;;20.01;34.29;101321.69;5036995;28;45397;-57
2022/05/02 05:39:10;;;;;;;;;12.75;12.75;;;;;20.01;34.23;101323.50;5036761;28;46024;-58
2022/05/02 05:41:41;;;;;;;;;13.75;11.25;;;;;20.02;34.16;101318.16;5037006;28;45365;-58
2022/05/02 05:44:12;;;;;;;;;11.25;11.00;;;;;20.02;34.38;101326.03;5037172;28;46143;-56
2022/05/02 05:46:46;;;;;;;;;13.75;11.50;;;;;20.02;34.29;101314.69;5036685;28;46135;-59
2022/05/02 05:49:17;;;;;;;;;14.75;12.75;;;;;20.02;34.20;101319.94;5036985;28;45847;-46
2022/05/02 05:51:55;;;;;;;;;12.75;12.50;;;;;20.02;34.29;101320.78;5037108;28;45285;-57
2022/05/02 05:54:45;;;;;;;;;11.75;11.75;;;;;20.02;34.36;101318.16;5036943;28;45390;-59
2022/05/02 05:57:19;;;;;;;;;11.75;11.50;;;;;20.01;34.42;101321.69;5036566;28;46353;-58
2022/05/02 06:00:01;;;;;;;;;16.75;14.75;;;;;20.00;34.33;101322.66;5036832;28;45721;-57
2022/05/02 06:03:01;;;;;;;;;14.50;12.75;;;;;20.02;34.06;101323.41;5036850;28;45287;-57
2022/05/02 06:05:28;;;;;;;;;12.25;11.25;;;;;19.99;34.68;101309.53;5036816;28;45315;-56
2022/05/02 06:07:55;;;;;;;;;15.25;11.25;;;;;20.02;34.47;101319.94;5036412;28;45437;-57
2022/05/02 06:10:23;;;;;;;;;14.00;10.50;;;;;20.03;34.29;101321.66;5035898;28;45332;-53
2022/05/02 06:12:49;;;;;;;;;12.25;11.00;;;;;20.03;34.53;101324.28;5035442;28;45433;-50
2022/05/02 06:20:45;;;;;;;;;12.50;11.75;;;;;20.03;34.58;101333.00;5036678;28;45236;-57
2022/05/02 06:23:13;;;;;;;;;18.00;15.00;;;;;20.02;34.45;101328.66;5036620;28;45283;-57
2022/05/02 06:25:39;;;;;;;;;17.50;13.50;;;;;20.03;34.46;101333.00;5036527;28;45481;-58
2022/05/02 06:28:07;;;;;;;;;17.00;16.00;;;;;20.03;34.29;101334.81;5036181;28;46637;-58
2022/05/02 06:30:35;;;;;;;;;19.25;16.25;;;;;20.02;34.63;101328.66;5036197;28;45481;-57
2022/05/02 06:33:09;;;;;;;;;20.75;16.75;;;;;20.03;34.77;101332.19;5036307;28;45435;-55
2022/05/02 06:35:53;;;;;;;;;24.25;18.50;;;;;20.03;34.46;101333.00;5036404;28;45194;-54
2022/05/02 06:38:25;;;;;;;;;25.00;20.50;;;;;20.01;34.75;101332.22;5036409;28;46062;-55
2022/05/02 06:41:17;;;;;;;;;23.75;19.00;;;;;20.00;34.92;101333.19;5036164;28;46098;-57
2022/05/02 06:43:45;;;;;;;;;28.50;17.25;;;;;19.99;34.37;101331.47;5036184;28;45483;-58
2022/05/02 06:46:29;;;;;;;;;29.00;21.25;;;;;19.96;34.50;101326.34;5036324;28;45585;-56
2022/05/02 06:49:03;;;;;;;;;25.00;18.75;;;;;19.97;33.88;101328.03;5036124;28;46354;-51
2022/05/02 06:51:49;;;;;;;;;17.25;17.25;;;;;19.95;34.26;101327.25;5035905;28;45363;-50
2022/05/02 06:54:26;;;;;;;;;16.50;15.50;;;;;19.96;34.20;101330.72;5036023;28;45344;-43
2022/05/02 06:57:26;;;;;;;;;18.50;14.50;;;;;19.97;34.12;101337.69;5036145;28;45467;-49
2022/05/02 07:00:03;;;;;;;;;18.50;17.00;;;;;19.95;33.90;101332.50;5033441;28;45328;-47
2022/05/02 07:02:53;;;;;;;;;20.25;18.00;;;;;19.95;33.84;101334.31;5035823;28;45318;-47
2022/05/02 07:05:59;;;;;;;;;20.50;18.00;;;;;19.94;33.82;101338.69;5036271;28;45358;-46
2022/05/02 07:08:37;;;;;;;;;21.25;19.00;;;;;19.93;33.75;101332.59;5002405;28;45372;-57
2022/05/02 07:11:04;;;;;;;;;23.50;18.75;;;;;19.93;34.00;101340.50;5034342;28;48207;-49
2022/05/02 07:13:53;;;;;;;;;20.00;18.50;;;;;19.93;34.02;101334.34;5035613;28;45940;-53
2022/05/02 07:16:25;;;;;;;;;24.50;19.00;;;;;19.92;33.66;101341.41;5036179;28;45324;-51
2022/05/02 07:19:13;;;;;;;;;18.75;18.25;;;;;19.91;33.92;101334.44;5035913;28;45331;-49
2022/05/02 07:21:55;;;;;;;;;18.50;15.75;;;;;19.91;33.63;101334.44;5050959;28;46292;-50
2022/05/02 07:24:23;;;;;;;;;17.75;16.50;;;;;19.91;33.77;101336.19;5038863;28;45898;-55
2022/05/02 07:27:27;;;;;;;;;22.00;17.25;;;;;19.91;34.07;101339.69;5039482;28;45328;-53
2022/05/02 07:29:57;;;;;;;;;20.25;20.00;;;;;19.90;33.67;101337.97;5026766;28;45533;-50
2022/05/02 07:32:24;;;;;;;;;26.00;19.00;;;;;19.88;34.08;101333.72;5038826;28;46184;-54
2022/05/02 07:34:52;;;;;;;;;27.75;19.50;;;;;19.88;34.07;101341.63;5039257;28;45460;-57
2022/05/02 07:37:21;;;;;;;;;24.75;18.75;;;;;19.91;33.93;101344.09;5039269;28;45689;-57
2022/05/02 07:39:48;;;;;;;;;24.75;18.25;;;;;19.91;33.59;101344.09;5038943;28;45561;-55
2022/05/02 07:42:14;;;;;;;;;19.25;16.25;;;;;19.91;34.38;101344.97;5038724;28;45479;-53
2022/05/02 07:44:43;;;;;;;;;20.25;16.25;;;;;19.92;33.96;101337.91;5038635;28;45458;-50
2022/05/02 07:47:11;;;;;;;;;21.50;16.25;;;;;19.93;34.32;101347.50;5037587;28;45454;-51
2022/05/02 07:49:37;;;;;;;;;19.75;16.50;;;;;19.95;33.84;101352.72;5038621;28;45715;-44
2022/05/02 07:52:03;;;;;;;;;24.00;20.50;;;;;19.98;33.81;101340.28;5037120;28;48011;-48
2022/05/02 07:54:35;;;;;;;;;19.25;17.25;;;;;20.00;33.66;101341.06;5038462;28;45457;-53
2022/05/02 07:57:03;;;;;;;;;24.75;19.50;;;;;20.01;33.46;101342.75;5038646;28;45474;-43
2022/05/02 07:59:43;;;;;;;;;28.50;23.25;;;;;20.03;33.81;101345.31;5038773;28;45307;-51
2022/05/02 08:02:09;;;;;;;;;24.00;22.25;;;;;20.03;34.48;101347.97;5038345;28;46432;-46
2022/05/02 08:04:38;;;;;;;;;27.50;22.25;;;;;20.02;33.72;101347.09;5038616;28;45335;-52
2022/05/02 08:07:11;;;;;;;;;29.25;24.50;;;;;20.02;34.02;101354.97;5038550;28;45394;-51
2022/05/02 08:09:55;;;;;;;;;23.50;20.00;;;;;20.03;33.78;101347.97;5038572;28;45346;-48
2022/05/02 08:12:40;;;;;;;;;26.50;18.25;;;;;20.02;33.69;101344.47;5038536;28;46130;-57
2022/05/02 08:15:15;;;;;;;;;24.75;21.50;;;;;20.04;33.85;101344.41;5038033;28;45990;-54
2022/05/02 08:18:02;;;;;;;;;23.00;19.50;;;;;20.04;34.17;101345.25;5038334;28;45544;-53
2022/05/02 08:20:45;;;;;;;;;22.00;19.50;;;;;20.02;33.54;101341.81;5038495;28;45489;-58
2022/05/02 08:29:27;;;;;;;;;28.75;24.25;;;;;20.02;34.12;101336.56;5038223;28;45221;-53
2022/05/02 08:32:12;;;;;;;;;26.00;20.00;;;;;20.02;34.22;101336.56;5038630;28;45291;-57
2022/05/02 08:34:40;;;;;;;;;30.25;25.25;;;;;20.04;34.17;101333.88;5037411;28;45300;-56
2022/05/02 08:37:11;;;;;;;;;32.75;20.75;;;;;20.04;34.15;101339.16;5038021;28;46051;-52
2022/05/02 08:39:46;;;;;;;;;23.25;20.25;;;;;20.02;34.16;101326.03;5037959;28;45307;-56
2022/05/02 08:42:24;;;;;;;;;29.25;22.00;;;;;20.02;33.96;101331.31;5038339;28;45223;-55
2022/05/02 08:45:24;;;;;;;;;30.50;27.00;;;;;20.01;34.10;101337.47;5037893;28;45237;-53
2022/05/02 08:48:04;;;;;;;;;26.00;24.00;;;;;19.99;34.38;101336.72;5037805;28;45902;-58
2022/05/02 08:50:51;;;;;;;;;35.00;26.75;;;;;20.00;34.14;101330.53;5053146;28;45290;-53
2022/05/02 08:54:03;;;;;;;;;22.25;16.50;;;;;20.00;34.28;101333.19;5037899;28;45419;-58
2022/05/02 08:56:39;;;;;;;;;24.50;24.50;;;;;20.00;34.37;101332.31;5037414;28;46100;-49
2022/05/02 08:59:22;;;;;;;;;29.00;23.75;;;;;20.00;34.16;101337.56;5037380;28;45242;-48
2022/05/02 09:02:08;;;;;;;;;25.00;21.25;;;;;20.00;34.45;101330.53;5037841;28;45267;-48
2022/05/02 09:05:03;;;;;;;;;30.50;23.25;;;;;20.02;33.92;101330.47;5037777;28;45356;-51
2022/05/02 09:07:49;;;;;;;;;27.25;24.00;;;;;20.01;34.28;101328.75;5016119;28;46588;-49
2022/05/02 09:10:20;;;;;;;;;27.50;24.75;;;;;20.01;33.81;101337.47;5037286;28;45279;-47
2022/05/02 09:12:58;;;;;;;;;28.00;24.25;;;;;20.00;34.26;101327.91;5037588;28;45348;-55
2022/05/02 09:15:29;;;;;;;;;27.50;25.25;;;;;20.01;34.18;101329.59;5053239;28;45460;-55
2022/05/02 09:18:15;;;;;;;;;41.50;27.75;;;;;20.00;34.29;101327.91;5037455;28;46298;-57
2022/05/02 09:20:57;;;;;;;;;33.75;30.75;;;;;20.00;34.20;101333.19;5037226;28;45884;-55
2022/05/02 09:23:34;;;;;;;;;35.50;29.25;;;;;20.03;34.11;101327.75;5036145;28;45649;-52
2022/05/02 09:26:05;;;;;;;;;31.25;26.00;;;;;20.06;34.26;101326.78;5037283;28;45481;-53
2022/05/02 09:29:09;;;;;;;;;31.50;26.75;;;;;20.07;34.50;101321.44;5036910;28;45315;-57
2022/05/02 09:32:05;;;;;;;;;28.00;25.75;;;;;20.08;34.24;101323.16;5037105;28;45921;-58
2022/05/02 09:34:47;;;;;;;;;27.75;25.50;;;;;20.06;34.39;101319.72;5037087;28;45474;-55
2022/05/02 09:37:23;;;;;;;;;28.00;26.25;;;;;20.08;34.29;101317.88;5037272;28;45227;-58
2022/05/02 09:40:14;;;;;;;;;30.25;24.50;;;;;20.08;34.19;101314.38;5037007;28;46184;-56
2022/05/02 09:42:45;;;;;;;;;27.00;22.75;;;;;20.09;34.23;101321.34;5036779;28;45480;-57
2022/05/02 09:51:21;;;;;;;;;28.00;25.75;;;;;20.09;34.09;101313.47;5036753;28;45396;-54
2022/05/02 09:53:49;;;;;;;;;26.25;26.25;;;;;20.09;34.11;101302.94;5036735;28;45968;-54
2022/05/02 09:56:39;;;;;;;;;24.25;21.25;;;;;20.10;34.42;101311.69;5036943;28;45981;-56
2022/05/02 09:59:28;;;;;;;;;25.75;23.00;;;;;20.11;33.90;101310.78;5037128;28;45295;-53
2022/05/02 10:02:12;;;;;;;;;24.50;22.75;;;;;20.12;34.41;101309.84;5036622;28;46326;-57
2022/05/02 10:05:05;;;;;;;;;24.00;20.25;;;;;20.11;34.19;101300.25;5036647;28;45400;-56
2022/05/02 10:07:40;;;;;;;;;28.00;22.00;;;;;20.12;34.17;101294.06;5036606;28;45387;-54
2022/05/02 10:10:20;;;;;;;;;26.00;25.25;;;;;20.12;34.41;101297.53;5036844;28;45289;-55
2022/05/02 10:12:57;;;;;;;;;26.25;23.25;;;;;20.13;34.15;101296.63;5036713;28;45378;-57
2022/05/02 10:15:31;;;;;;;;;31.00;25.75;;;;;20.13;34.33;101296.63;5036469;28;46013;-48
2022/05/02 10:18:29;;;;;;;;;24.75;23.50;;;;;20.14;34.22;101302.72;5036841;28;45355;-46
2022/05/02 10:21:08;;;;;;;;;21.75;20.75;;;;;20.16;34.67;101304.38;5034589;28;45243;-50
2022/05/02 10:23:55;;;;;;;;;23.75;22.25;;;;;20.16;34.45;101292.97;5036294;28;46867;-54
2022/05/02 10:26:39;;;;;;;;;24.75;22.50;;;;;20.16;34.49;101298.25;5051871;28;45435;-45
2022/05/02 10:29:13;;;;;;;;;26.50;20.50;;;;;20.15;34.59;101292.16;5036428;28;45328;-55
2022/05/02 10:31:39;;;;;;;;;24.75;22.00;;;;;20.15;34.41;101297.41;5036355;28;45549;-53
2022/05/02 10:34:07;;;;;;;;;25.50;21.25;;;;;20.15;34.55;101286.00;5034814;28;45350;-52
2022/05/02 10:36:40;;;;;;;;;21.50;19.75;;;;;20.14;34.66;101284.31;5036085;28;45888;-53
2022/05/02 10:39:38;;;;;;;;;25.00;20.50;;;;;20.17;34.34;101286.78;5036227;28;45484;-58
2022/05/02 10:42:06;;;;;;;;;22.50;19.25;;;;;20.16;34.71;101288.59;5032513;28;45324;-52
2022/05/02 10:45:01;;;;;;;;;25.25;23.00;;;;;20.18;34.34;101283.25;5036013;28;46467;-48
2022/05/02 10:47:38;;;;;;;;;25.75;20.50;;;;;20.17;34.53;101282.41;5036296;28;45821;-52
2022/05/02 10:50:16;;;;;;;;;23.75;21.00;;;;;20.18;34.19;101285.88;5036093;28;45346;-46
2022/05/02 10:52:47;;;;;;;;;20.00;19.50;;;;;20.17;34.60;101277.13;5036317;28;45379;-47
2022/05/02 10:55:19;;;;;;;;;25.50;23.50;;;;;20.18;34.27;101277.97;5035794;28;46191;-58
2022/05/02 10:57:55;;;;;;;;;31.00;23.25;;;;;20.20;34.19;101276.13;5037944;28;45488;-47
2022/05/02 11:00:23;;;;;;;;;36.75;30.75;;;;;20.20;34.64;101268.25;5039710;28;45277;-46
2022/05/02 11:03:24;;;;;;;;;27.50;21.50;;;;;20.21;34.37;101267.31;5039667;28;45508;-46
2022/05/02 11:06:08;;;;;;;;;33.75;24.25;;;;;20.21;34.50;101256.78;5039350;28;45284;-48
2022/05/02 11:09:03;;;;;;;;;29.00;24.00;;;;;20.18;34.49;101257.75;5054901;28;45967;-50
2022/05/02 11:11:34;;;;;;;;;24.50;19.25;;;;;20.19;34.94;101250.75;5038366;28;45442;-49
2022/05/02 11:14:26;;;;;;;;;23.75;18.50;;;;;20.18;35.06;101243.78;5039747;28;45508;-48
2022/05/02 11:17:06;;;;;;;;;22.50;19.50;;;;;20.18;34.67;101246.41;4997145;28;46258;-48
2022/05/02 11:22:37;;;;;;;;;24.25;19.50;;;;;20.20;35.23;101249.81;5039572;28;45254;-46
2022/05/02 11:25:07;;;;;;;;;29.25;24.00;;;;;20.21;35.07;101235.72;5039786;28;45400;-48
2022/05/02 11:27:37;;;;;;;;;31.00;26.50;;;;;20.26;35.08;101246.03;5039246;28;46352;-48
2022/05/02 11:30:06;;;;;;;;;27.25;20.75;;;;;20.26;35.09;101238.16;5037930;28;45519;-48
2022/05/02 11:32:56;;;;;;;;;34.00;28.75;;;;;20.26;34.98;101246.88;5039177;28;45482;-46
2022/05/02 11:35:28;;;;;;;;;28.50;23.25;;;;;20.28;35.44;101250.28;5039238;28;45257;-49
2022/05/02 11:37:55;;;;;;;;;28.25;21.50;;;;;20.41;35.17;101247.91;5038985;28;45425;-45
2022/05/02 11:40:46;;;;;;;;;23.50;21.75;;;;;20.50;35.27;101239.59;5038769;28;45257;-54
2022/05/02 11:43:18;;;;;;;;;25.50;23.75;;;;;20.51;34.80;101235.16;5038929;28;45402;-47
2022/05/02 11:45:50;;;;;;;;;31.50;22.00;;;;;20.49;34.73;101237.03;5039139;28;45319;-46
2022/05/02 11:48:21;;;;;;;;;29.75;24.00;;;;;20.48;34.65;101236.19;5038578;28;47339;-51
2022/05/02 11:50:48;;;;;;;;;28.25;25.25;;;;;20.47;34.66;101238.88;5038664;28;45395;-49
2022/05/02 11:53:16;;;;;;;;;32.25;29.00;;;;;20.46;37.52;101238.03;5038840;28;45412;-57
2022/05/02 11:55:44;;;;;;;;;29.75;26.50;;;;;20.45;38.53;101227.59;5038762;28;45172;-58
2022/05/02 11:58:19;;;;;;;;;32.25;25.50;;;;;20.45;38.49;101232.84;5038603;28;45263;-52
2022/05/02 12:01:02;;;;;;;;;32.25;30.25;;;;;20.42;37.56;101233.00;5038507;28;45906;-55